Hauptseite
METAR-TAF:

METAR-TAF

Flughäfen :

Flughafen Alderney

Alderney,

Breite: 49-43N, Länge: 002-12W, Höhe: 71 m

Beobachtung

Neuester Wetterbericht von vor 22 Minuten, um 14:50 UTC
Wind 11 kt aus West/Nordwest
Temperatur 18°C
Luftfeuchtigkeit 88%
Luftdruck 1023 hPa
Sichtweite 10 km oder mehr
Leicht bewölkt in der Höhe von 1200 ft

METAR: EGJA 231450Z 29011KT 9999 FEW012 18/16 Q1023

Zeit: 16:12 (15:12 UTC)

Prognose

Neuester Wetterbericht von vor 1 Stunde und 18 Minuten, um 13:54 UTC
Gültige Prognose vom 23 um 15 UTC bis 24 um 00 UTC
Wind 11 kt aus West
Sichtweite 10 km oder mehr
Leicht bewölkt in der Höhe von 1200 ft

TAF: EGJA 231354Z 2315/2400 28011KT 9999 FEW012

Wetterbeobachtungen und Prognosen von mehr als 4000 Flughäfen (METAR und TAF Bericht).

Die verfügbaren Stationen werden durch gelbe und rote Markierungen auf der Karte dargestellt.

Führen Sie die Maus auf sie, um den Namen der Station zu sehen.

Darauf klicken, um die Beobachtung von Wetterbeobachtungen und Prognosen zu sehen.

Um die Karte zu ändern : klicken Sie auf den grünen Tasten mit einem schwarzen Kreuz Zum Vergrößern, auf den grünen Button mit einem Gedankenstrich zu verkleinern, oder auf die grünen Pfeile für benachbarte Karten.


METAR-TAF: